Terminal Aerodrome Forecast
Issued by NWS

Current Version | Previous Version | Text Only | Print | Product List | Glossary On
Versions: 1 2 3 4 5 6 7 8 9 10 11 12 13
000
FTUS46 KLOX 270500
TAFWJF
TAF
KWJF 270539Z 2706/2806 28012KT P6SM SCT250
     FM271800 27015G25KT P6SM BKN100
     FM272100 26023G33KT P6SM BKN080
     FM280400 25015G25KT P6SM BKN080=

USA.gov is the U.S. government's official web portal to all federal, state and local government web resources and services.